sensor_id;sensor_type;location;lat;lon;timestamp;pressure;altitude;pressure_sealevel;temperature;humidity
13695;BME280;6919;52.344;14.518;2022-10-03T00:01:19;100788.16;;;11.86;100.00
13695;BME280;6919;52.344;14.518;2022-10-03T00:04:08;100792.78;;;11.76;100.00
13695;BME280;6919;52.344;14.518;2022-10-03T00:06:56;100790.44;;;11.81;100.00
13695;BME280;6919;52.344;14.518;2022-10-03T00:09:58;100804.03;;;11.79;100.00
13695;BME280;6919;52.344;14.518;2022-10-03T00:12:59;100801.75;;;11.67;100.00
13695;BME280;6919;52.344;14.518;2022-10-03T00:15:42;100796.66;;;11.81;100.00
13695;BME280;6919;52.344;14.518;2022-10-03T00:18:34;100802.66;;;11.75;100.00
13695;BME280;6919;52.344;14.518;2022-10-03T00:21:20;100797.72;;;11.88;100.00
13695;BME280;6919;52.344;14.518;2022-10-03T00:24:10;100807.22;;;11.75;100.00
13695;BME280;6919;52.344;14.518;2022-10-03T00:26:53;100796.06;;;11.70;100.00
13695;BME280;6919;52.344;14.518;2022-10-03T00:29:48;100805.34;;;11.75;100.00
13695;BME280;6919;52.344;14.518;2022-10-03T00:32:34;100807.63;;;11.62;100.00
13695;BME280;6919;52.344;14.518;2022-10-03T00:35:28;100812.44;;;11.76;100.00
13695;BME280;6919;52.344;14.518;2022-10-03T00:38:20;100805.50;;;11.74;100.00
13695;BME280;6919;52.344;14.518;2022-10-03T00:41:27;100811.03;;;11.72;100.00
13695;BME280;6919;52.344;14.518;2022-10-03T00:50:51;100813.19;;;11.69;100.00
13695;BME280;6919;52.344;14.518;2022-10-03T00:53:46;100823.72;;;11.62;100.00
13695;BME280;6919;52.344;14.518;2022-10-03T00:56:50;100817.72;;;11.68;100.00
13695;BME280;6919;52.344;14.518;2022-10-03T00:59:43;100824.47;;;11.72;100.00
13695;BME280;6919;52.344;14.518;2022-10-03T01:02:45;100813.63;;;11.82;100.00
13695;BME280;6919;52.344;14.518;2022-10-03T01:05:30;100814.31;;;11.84;100.00
13695;BME280;6919;52.344;14.518;2022-10-03T01:08:35;100815.78;;;11.78;100.00
13695;BME280;6919;52.344;14.518;2022-10-03T01:11:26;100824.38;;;11.82;100.00
13695;BME280;6919;52.344;14.518;2022-10-03T01:14:20;100820.84;;;11.81;100.00
13695;BME280;6919;52.344;14.518;2022-10-03T01:17:06;100821.75;;;11.90;100.00
13695;BME280;6919;52.344;14.518;2022-10-03T01:20:03;100829.75;;;12.08;100.00
13695;BME280;6919;52.344;14.518;2022-10-03T01:23:30;100833.09;;;12.02;100.00
13695;BME280;6919;52.344;14.518;2022-10-03T01:26:18;100824.66;;;11.97;100.00
13695;BME280;6919;52.344;14.518;2022-10-03T01:28:56;100831.19;;;11.94;100.00
13695;BME280;6919;52.344;14.518;2022-10-03T01:31:54;100837.25;;;11.96;100.00
13695;BME280;6919;52.344;14.518;2022-10-03T01:34:32;100838.72;;;11.91;100.00
13695;BME280;6919;52.344;14.518;2022-10-03T01:37:11;100838.78;;;11.99;100.00
13695;BME280;6919;52.344;14.518;2022-10-03T01:39:49;100838.78;;;11.81;100.00
13695;BME280;6919;52.344;14.518;2022-10-03T01:42:36;100839.72;;;11.89;100.00
13695;BME280;6919;52.344;14.518;2022-10-03T01:45:28;100836.09;;;11.99;100.00
13695;BME280;6919;52.344;14.518;2022-10-03T01:48:03;100840.50;;;12.08;100.00
13695;BME280;6919;52.344;14.518;2022-10-03T01:50:43;100844.50;;;12.04;100.00
13695;BME280;6919;52.344;14.518;2022-10-03T01:53:24;100841.16;;;12.02;100.00
13695;BME280;6919;52.344;14.518;2022-10-03T01:56:02;100840.50;;;12.08;100.00
13695;BME280;6919;52.344;14.518;2022-10-03T01:58:47;100849.47;;;12.16;100.00
13695;BME280;6919;52.344;14.518;2022-10-03T02:01:28;100852.56;;;12.04;100.00
13695;BME280;6919;52.344;14.518;2022-10-03T02:04:13;100851.66;;;12.13;100.00
13695;BME280;6919;52.344;14.518;2022-10-03T02:06:52;100854.06;;;12.24;100.00
13695;BME280;6919;52.344;14.518;2022-10-03T02:09:30;100851.88;;;12.27;100.00
13695;BME280;6919;52.344;14.518;2022-10-03T02:12:12;100852.53;;;12.21;100.00
13695;BME280;6919;52.344;14.518;2022-10-03T02:14:54;100849.75;;;12.31;100.00
13695;BME280;6919;52.344;14.518;2022-10-03T02:17:50;100861.50;;;12.30;100.00
13695;BME280;6919;52.344;14.518;2022-10-03T02:20:30;100865.72;;;12.32;100.00
13695;BME280;6919;52.344;14.518;2022-10-03T02:23:24;100867.06;;;12.36;100.00
13695;BME280;6919;52.344;14.518;2022-10-03T02:26:13;100872.63;;;12.35;100.00
13695;BME280;6919;52.344;14.518;2022-10-03T02:29:25;100878.00;;;12.35;100.00
13695;BME280;6919;52.344;14.518;2022-10-03T02:32:41;100864.91;;;12.40;100.00
13695;BME280;6919;52.344;14.518;2022-10-03T02:35:56;100873.84;;;12.48;100.00
13695;BME280;6919;52.344;14.518;2022-10-03T02:39:01;100880.06;;;12.41;100.00
13695;BME280;6919;52.344;14.518;2022-10-03T02:42:15;100879.91;;;12.42;100.00
13695;BME280;6919;52.344;14.518;2022-10-03T02:45:28;100875.25;;;12.52;100.00
13695;BME280;6919;52.344;14.518;2022-10-03T02:48:41;100890.22;;;12.55;100.00
13695;BME280;6919;52.344;14.518;2022-10-03T02:55:07;100892.47;;;12.67;100.00
13695;BME280;6919;52.344;14.518;2022-10-03T02:58:12;100890.25;;;12.63;100.00
13695;BME280;6919;52.344;14.518;2022-10-03T03:01:31;100898.34;;;12.63;100.00
13695;BME280;6919;52.344;14.518;2022-10-03T03:05:02;100888.91;;;12.59;100.00
13695;BME280;6919;52.344;14.518;2022-10-03T03:07:56;100891.94;;;12.64;100.00
13695;BME280;6919;52.344;14.518;2022-10-03T03:11:01;100885.00;;;12.53;100.00
13695;BME280;6919;52.344;14.518;2022-10-03T03:14:16;100892.91;;;12.55;100.00
13695;BME280;6919;52.344;14.518;2022-10-03T03:17:12;100889.72;;;12.59;100.00
13695;BME280;6919;52.344;14.518;2022-10-03T03:20:04;100890.25;;;12.63;100.00
13695;BME280;6919;52.344;14.518;2022-10-03T03:23:06;100880.78;;;12.51;100.00
13695;BME280;6919;52.344;14.518;2022-10-03T03:26:06;100884.03;;;12.62;100.00
13695;BME280;6919;52.344;14.518;2022-10-03T03:28:46;100873.81;;;12.66;100.00
13695;BME280;6919;52.344;14.518;2022-10-03T03:31:33;100888.59;;;12.62;100.00
13695;BME280;6919;52.344;14.518;2022-10-03T03:34:14;100891.16;;;12.71;100.00
13695;BME280;6919;52.344;14.518;2022-10-03T03:36:59;100893.97;;;12.62;100.00
13695;BME280;6919;52.344;14.518;2022-10-03T03:40:09;100881.25;;;12.72;100.00
13695;BME280;6919;52.344;14.518;2022-10-03T03:43:06;100892.97;;;12.71;100.00
13695;BME280;6919;52.344;14.518;2022-10-03T03:46:01;100898.03;;;12.74;100.00
13695;BME280;6919;52.344;14.518;2022-10-03T03:49:02;100890.75;;;12.66;100.00
13695;BME280;6919;52.344;14.518;2022-10-03T03:51:44;100892.38;;;12.51;100.00
13695;BME280;6919;52.344;14.518;2022-10-03T03:54:53;100888.59;;;12.62;100.00
13695;BME280;6919;52.344;14.518;2022-10-03T03:57:54;100890.59;;;12.68;100.00
13695;BME280;6919;52.344;14.518;2022-10-03T04:00:44;100888.78;;;12.68;100.00
13695;BME280;6919;52.344;14.518;2022-10-03T04:03:32;100886.72;;;12.62;100.00
13695;BME280;6919;52.344;14.518;2022-10-03T04:06:26;100872.31;;;12.71;100.00
13695;BME280;6919;52.344;14.518;2022-10-03T04:09:30;100890.56;;;12.60;100.00
13695;BME280;6919;52.344;14.518;2022-10-03T04:12:20;100896.34;;;12.65;100.00
13695;BME280;6919;52.344;14.518;2022-10-03T04:15:10;100906.81;;;12.76;100.00
13695;BME280;6919;52.344;14.518;2022-10-03T04:18:00;100901.91;;;12.71;100.00
13695;BME280;6919;52.344;14.518;2022-10-03T04:21:14;100899.34;;;12.62;100.00
13695;BME280;6919;52.344;14.518;2022-10-03T04:24:07;100901.53;;;12.66;100.00
13695;BME280;6919;52.344;14.518;2022-10-03T04:27:05;100904.78;;;12.78;100.00
13695;BME280;6919;52.344;14.518;2022-10-03T04:30:04;100910.66;;;12.73;100.00
13695;BME280;6919;52.344;14.518;2022-10-03T04:33:06;100894.94;;;12.61;100.00
13695;BME280;6919;52.344;14.518;2022-10-03T04:36:26;100893.97;;;12.62;100.00
13695;BME280;6919;52.344;14.518;2022-10-03T04:39:09;100909.66;;;12.74;100.00
13695;BME280;6919;52.344;14.518;2022-10-03T04:41:49;100900.47;;;12.59;100.00
13695;BME280;6919;52.344;14.518;2022-10-03T04:44:50;100908.75;;;12.58;100.00
13695;BME280;6919;52.344;14.518;2022-10-03T04:47:32;100924.47;;;12.78;100.00
13695;BME280;6919;52.344;14.518;2022-10-03T04:50:26;100916.22;;;12.72;100.00
13695;BME280;6919;52.344;14.518;2022-10-03T04:53:20;100924.94;;;12.74;100.00
13695;BME280;6919;52.344;14.518;2022-10-03T04:55:59;100911.38;;;12.83;100.00
13695;BME280;6919;52.344;14.518;2022-10-03T04:58:39;100925.16;;;12.80;100.00
13695;BME280;6919;52.344;14.518;2022-10-03T05:01:17;100926.00;;;12.81;100.00
13695;BME280;6919;52.344;14.518;2022-10-03T05:04:01;100925.06;;;12.90;100.00
13695;BME280;6919;52.344;14.518;2022-10-03T05:06:50;100934.94;;;12.81;100.00
13695;BME280;6919;52.344;14.518;2022-10-03T05:09:33;100935.44;;;12.85;100.00
13695;BME280;6919;52.344;14.518;2022-10-03T05:12:13;100937.13;;;12.86;100.00
13695;BME280;6919;52.344;14.518;2022-10-03T05:15:04;100933.78;;;12.92;100.00
13695;BME280;6919;52.344;14.518;2022-10-03T05:17:54;100942.56;;;12.94;100.00
13695;BME280;6919;52.344;14.518;2022-10-03T05:20:52;100933.69;;;13.01;100.00
13695;BME280;6919;52.344;14.518;2022-10-03T05:23:44;100943.53;;;12.93;100.00
13695;BME280;6919;52.344;14.518;2022-10-03T05:26:23;100961.47;;;13.02;100.00
13695;BME280;6919;52.344;14.518;2022-10-03T05:29:22;100951.97;;;12.90;100.00
13695;BME280;6919;52.344;14.518;2022-10-03T05:32:09;100950.56;;;12.86;100.00
13695;BME280;6919;52.344;14.518;2022-10-03T05:35:02;100960.09;;;12.72;100.00
13695;BME280;6919;52.344;14.518;2022-10-03T05:37:57;100970.44;;;12.85;100.00
13695;BME280;6919;52.344;14.518;2022-10-03T05:40:34;100978.41;;;12.69;100.00
13695;BME280;6919;52.344;14.518;2022-10-03T05:43:23;100979.81;;;12.55;100.00
13695;BME280;6919;52.344;14.518;2022-10-03T05:46:03;100997.44;;;12.50;100.00
13695;BME280;6919;52.344;14.518;2022-10-03T05:48:47;100994.06;;;12.48;100.00
13695;BME280;6919;52.344;14.518;2022-10-03T05:52:00;100994.16;;;12.38;100.00
13695;BME280;6919;52.344;14.518;2022-10-03T05:55:07;101001.53;;;12.36;100.00
13695;BME280;6919;52.344;14.518;2022-10-03T05:58:16;101014.06;;;12.28;100.00
13695;BME280;6919;52.344;14.518;2022-10-03T06:04:22;101022.19;;;12.36;100.00
13695;BME280;6919;52.344;14.518;2022-10-03T06:07:13;101022.44;;;12.25;100.00
13695;BME280;6919;52.344;14.518;2022-10-03T06:10:33;101025.38;;;12.31;100.00
13695;BME280;6919;52.344;14.518;2022-10-03T06:13:19;101016.63;;;12.12;100.00
13695;BME280;6919;52.344;14.518;2022-10-03T06:16:17;101014.09;;;12.10;100.00
13695;BME280;6919;52.344;14.518;2022-10-03T06:19:13;101021.53;;;12.34;100.00
13695;BME280;6919;52.344;14.518;2022-10-03T06:29:25;101025.34;;;12.49;100.00
13695;BME280;6919;52.344;14.518;2022-10-03T06:43:06;101043.72;;;12.53;100.00
13695;BME280;6919;52.344;14.518;2022-10-03T06:46:12;101037.78;;;12.50;100.00
13695;BME280;6919;52.344;14.518;2022-10-03T06:52:30;101033.22;;;12.68;100.00
13695;BME280;6919;52.344;14.518;2022-10-03T07:09:00;101040.44;;;12.93;100.00
13695;BME280;6919;52.344;14.518;2022-10-03T07:12:28;101046.75;;;12.76;100.00
13695;BME280;6919;52.344;14.518;2022-10-03T07:15:47;101048.06;;;12.97;100.00
13695;BME280;6919;52.344;14.518;2022-10-03T07:19:17;101047.47;;;13.37;100.00
13695;BME280;6919;52.344;14.518;2022-10-03T07:22:26;101041.06;;;13.38;100.00
13695;BME280;6919;52.344;14.518;2022-10-03T07:25:56;101048.47;;;13.36;100.00
13695;BME280;6919;52.344;14.518;2022-10-03T07:29:07;101050.94;;;13.63;100.00
13695;BME280;6919;52.344;14.518;2022-10-03T07:32:01;101057.66;;;13.59;100.00
13695;BME280;6919;52.344;14.518;2022-10-03T07:35:12;101047.63;;;13.77;100.00
13695;BME280;6919;52.344;14.518;2022-10-03T07:42:17;101061.41;;;13.74;100.00
13695;BME280;6919;52.344;14.518;2022-10-03T07:45:43;101064.34;;;13.96;100.00
13695;BME280;6919;52.344;14.518;2022-10-03T07:48:45;101064.19;;;13.90;100.00
13695;BME280;6919;52.344;14.518;2022-10-03T07:51:33;101062.13;;;13.84;100.00
13695;BME280;6919;52.344;14.518;2022-10-03T07:54:47;101072.66;;;14.03;100.00
13695;BME280;6919;52.344;14.518;2022-10-03T07:57:54;101065.31;;;14.53;100.00
13695;BME280;6919;52.344;14.518;2022-10-03T08:00:47;101074.09;;;14.31;100.00
13695;BME280;6919;52.344;14.518;2022-10-03T08:04:16;101082.25;;;14.05;100.00
13695;BME280;6919;52.344;14.518;2022-10-03T08:07:10;101086.91;;;14.45;100.00
13695;BME280;6919;52.344;14.518;2022-10-03T08:10:08;101084.69;;;14.32;100.00
13695;BME280;6919;52.344;14.518;2022-10-03T08:13:01;101087.56;;;14.47;100.00
13695;BME280;6919;52.344;14.518;2022-10-03T08:15:57;101087.94;;;14.92;100.00
13695;BME280;6919;52.344;14.518;2022-10-03T08:19:14;101085.41;;;14.50;100.00
13695;BME280;6919;52.344;14.518;2022-10-03T08:21:59;101098.53;;;14.53;100.00
13695;BME280;6919;52.344;14.518;2022-10-03T08:25:11;101101.56;;;14.99;100.00
13695;BME280;6919;52.344;14.518;2022-10-03T08:28:04;101099.34;;;15.18;100.00
13695;BME280;6919;52.344;14.518;2022-10-03T08:31:18;101103.03;;;15.33;100.00
13695;BME280;6919;52.344;14.518;2022-10-03T08:45:29;101125.38;;;15.11;100.00
13695;BME280;6919;52.344;14.518;2022-10-03T08:48:43;101120.78;;;15.28;100.00
13695;BME280;6919;52.344;14.518;2022-10-03T08:52:12;101118.25;;;15.42;100.00
13695;BME280;6919;52.344;14.518;2022-10-03T08:55:20;101121.31;;;15.07;100.00
13695;BME280;6919;52.344;14.518;2022-10-03T09:01:39;101132.94;;;15.24;100.00
13695;BME280;6919;52.344;14.518;2022-10-03T09:05:16;101124.69;;;15.01;100.00
13695;BME280;6919;52.344;14.518;2022-10-03T09:08:49;101127.25;;;14.95;100.00
13695;BME280;6919;52.344;14.518;2022-10-03T09:12:18;101124.34;;;15.04;100.00
13695;BME280;6919;52.344;14.518;2022-10-03T09:15:17;101126.69;;;15.31;100.00
13695;BME280;6919;52.344;14.518;2022-10-03T09:18:38;101129.91;;;15.43;100.00
13695;BME280;6919;52.344;14.518;2022-10-03T09:21:59;101134.47;;;15.42;100.00
13695;BME280;6919;52.344;14.518;2022-10-03T09:35:43;101126.31;;;15.66;100.00
13695;BME280;6919;52.344;14.518;2022-10-03T09:38:58;101141.13;;;15.78;100.00
13695;BME280;6919;52.344;14.518;2022-10-03T09:45:21;101138.81;;;16.36;100.00
13695;BME280;6919;52.344;14.518;2022-10-03T09:51:26;101140.50;;;16.37;100.00
13695;BME280;6919;52.344;14.518;2022-10-03T09:54:52;101136.78;;;15.61;100.00
13695;BME280;6919;52.344;14.518;2022-10-03T09:58:03;101139.47;;;15.61;100.00
13695;BME280;6919;52.344;14.518;2022-10-03T10:01:16;101157.41;;;15.62;100.00
13695;BME280;6919;52.344;14.518;2022-10-03T10:04:40;101147.69;;;15.92;100.00
13695;BME280;6919;52.344;14.518;2022-10-03T10:11:37;101157.84;;;16.20;100.00
13695;BME280;6919;52.344;14.518;2022-10-03T10:14:42;101152.38;;;15.98;100.00
13695;BME280;6919;52.344;14.518;2022-10-03T10:21:41;101163.47;;;16.11;100.00
13695;BME280;6919;52.344;14.518;2022-10-03T10:25:17;101167.19;;;16.48;100.00
13695;BME280;6919;52.344;14.518;2022-10-03T10:38:33;101166.41;;;16.32;100.00
13695;BME280;6919;52.344;14.518;2022-10-03T10:49:02;101170.72;;;16.18;100.00
13695;BME280;6919;52.344;14.518;2022-10-03T10:56:30;101170.09;;;16.69;100.00
13695;BME280;6919;52.344;14.518;2022-10-03T11:00:09;101166.34;;;16.09;100.00
13695;BME280;6919;52.344;14.518;2022-10-03T11:03:28;101172.81;;;16.39;100.00
13695;BME280;6919;52.344;14.518;2022-10-03T11:07:02;101169.13;;;16.62;100.00
13695;BME280;6919;52.344;14.518;2022-10-03T11:09:52;101178.06;;;16.32;100.00
13695;BME280;6919;52.344;14.518;2022-10-03T11:16:54;101182.59;;;16.48;100.00
13695;BME280;6919;52.344;14.518;2022-10-03T11:24:07;101184.44;;;16.78;100.00
13695;BME280;6919;52.344;14.518;2022-10-03T11:27:32;101178.84;;;17.02;100.00
13695;BME280;6919;52.344;14.518;2022-10-03T11:30:22;101185.50;;;17.14;100.00
13695;BME280;6919;52.344;14.518;2022-10-03T11:37:19;101179.09;;;17.29;100.00
13695;BME280;6919;52.344;14.518;2022-10-03T11:40:20;101177.16;;;17.38;100.00
13695;BME280;6919;52.344;14.518;2022-10-03T11:43:39;101177.31;;;17.59;100.00
13695;BME280;6919;52.344;14.518;2022-10-03T11:46:45;101179.00;;;17.37;100.00
13695;BME280;6919;52.344;14.518;2022-10-03T11:49:56;101190.88;;;17.36;100.00
13695;BME280;6919;52.344;14.518;2022-10-03T11:52:34;101179.88;;;17.38;100.00
13695;BME280;6919;52.344;14.518;2022-10-03T11:55:23;101185.09;;;17.39;100.00
13695;BME280;6919;52.344;14.518;2022-10-03T11:58:19;101183.78;;;17.58;100.00
13695;BME280;6919;52.344;14.518;2022-10-03T12:01:10;101178.38;;;17.35;100.00
13695;BME280;6919;52.344;14.518;2022-10-03T12:03:54;101186.91;;;17.47;100.00
13695;BME280;6919;52.344;14.518;2022-10-03T12:07:00;101178.34;;;17.73;100.00
13695;BME280;6919;52.344;14.518;2022-10-03T12:10:02;101168.78;;;17.77;100.00
13695;BME280;6919;52.344;14.518;2022-10-03T12:12:42;101174.34;;;17.83;100.00
13695;BME280;6919;52.344;14.518;2022-10-03T12:15:32;101175.44;;;17.22;100.00
13695;BME280;6919;52.344;14.518;2022-10-03T12:18:09;101177.41;;;17.51;100.00
13695;BME280;6919;52.344;14.518;2022-10-03T12:21:02;101177.59;;;18.08;100.00
13695;BME280;6919;52.344;14.518;2022-10-03T12:24:02;101169.97;;;18.32;100.00
13695;BME280;6919;52.344;14.518;2022-10-03T12:26:47;101174.66;;;18.53;100.00
13695;BME280;6919;52.344;14.518;2022-10-03T12:29:23;101170.97;;;19.02;100.00
13695;BME280;6919;52.344;14.518;2022-10-03T12:32:13;101165.38;;;18.33;100.00
13695;BME280;6919;52.344;14.518;2022-10-03T12:34:58;101163.28;;;18.85;100.00
13695;BME280;6919;52.344;14.518;2022-10-03T12:40:41;101165.59;;;18.46;100.00
13695;BME280;6919;52.344;14.518;2022-10-03T12:43:32;101156.72;;;18.08;100.00
13695;BME280;6919;52.344;14.518;2022-10-03T12:46:14;101166.38;;;17.96;100.00
13695;BME280;6919;52.344;14.518;2022-10-03T12:48:50;101161.56;;;18.13;100.00
13695;BME280;6919;52.344;14.518;2022-10-03T12:51:42;101162.06;;;18.02;100.00
13695;BME280;6919;52.344;14.518;2022-10-03T12:54:31;101172.91;;;18.02;100.00
13695;BME280;6919;52.344;14.518;2022-10-03T12:57:49;101175.44;;;18.03;100.00
13695;BME280;6919;52.344;14.518;2022-10-03T13:00:25;101170.56;;;18.28;100.00
13695;BME280;6919;52.344;14.518;2022-10-03T13:03:35;101169.72;;;18.42;100.00
13695;BME280;6919;52.344;14.518;2022-10-03T13:06:33;101158.78;;;18.21;100.00
13695;BME280;6919;52.344;14.518;2022-10-03T13:09:46;101166.94;;;17.77;100.00
13695;BME280;6919;52.344;14.518;2022-10-03T13:12:33;101171.16;;;17.80;100.00
13695;BME280;6919;52.344;14.518;2022-10-03T13:15:46;101169.19;;;17.59;100.00
13695;BME280;6919;52.344;14.518;2022-10-03T13:18:49;101159.06;;;17.82;100.00
13695;BME280;6919;52.344;14.518;2022-10-03T13:21:27;101167.31;;;17.74;100.00
13695;BME280;6919;52.344;14.518;2022-10-03T13:24:25;101154.75;;;18.02;100.00
13695;BME280;6919;52.344;14.518;2022-10-03T13:27:16;101159.56;;;17.86;100.00
13695;BME280;6919;52.344;14.518;2022-10-03T13:30:01;101158.63;;;17.79;100.00
13695;BME280;6919;52.344;14.518;2022-10-03T13:32:34;101155.69;;;18.09;100.00
13695;BME280;6919;52.344;14.518;2022-10-03T13:35:21;101163.41;;;18.27;100.00
13695;BME280;6919;52.344;14.518;2022-10-03T13:38:33;101156.25;;;18.55;100.00
13695;BME280;6919;52.344;14.518;2022-10-03T13:41:22;101158.88;;;18.63;100.00
13695;BME280;6919;52.344;14.518;2022-10-03T13:43:59;101163.34;;;18.20;100.00
13695;BME280;6919;52.344;14.518;2022-10-03T13:46:41;101169.94;;;17.97;100.00
13695;BME280;6919;52.344;14.518;2022-10-03T13:49:22;101178.34;;;17.58;100.00
13695;BME280;6919;52.344;14.518;2022-10-03T13:52:03;101161.75;;;16.18;100.00
13695;BME280;6919;52.344;14.518;2022-10-03T13:58:04;101184.44;;;16.09;100.00
13695;BME280;6919;52.344;14.518;2022-10-03T14:01:06;101178.03;;;16.02;100.00
13695;BME280;6919;52.344;14.518;2022-10-03T14:03:51;101185.00;;;16.04;100.00
13695;BME280;6919;52.344;14.518;2022-10-03T14:06:28;101197.78;;;16.57;100.00
13695;BME280;6919;52.344;14.518;2022-10-03T14:09:37;101201.22;;;17.56;100.00
13695;BME280;6919;52.344;14.518;2022-10-03T14:12:22;101189.34;;;17.42;100.00
13695;BME280;6919;52.344;14.518;2022-10-03T14:15:25;101185.16;;;17.69;100.00
13695;BME280;6919;52.344;14.518;2022-10-03T14:18:11;101182.91;;;18.66;100.00
13695;BME280;6919;52.344;14.518;2022-10-03T14:21:31;101180.44;;;18.64;100.00
13695;BME280;6919;52.344;14.518;2022-10-03T14:24:13;101174.16;;;18.49;100.00
13695;BME280;6919;52.344;14.518;2022-10-03T14:26:50;101182.56;;;17.75;100.00
13695;BME280;6919;52.344;14.518;2022-10-03T14:29:29;101178.09;;;17.08;100.00
13695;BME280;6919;52.344;14.518;2022-10-03T14:32:08;101174.91;;;16.82;100.00
13695;BME280;6919;52.344;14.518;2022-10-03T14:35:18;101182.78;;;16.69;100.00
13695;BME280;6919;52.344;14.518;2022-10-03T14:37:57;101183.03;;;16.59;100.00
13695;BME280;6919;52.344;14.518;2022-10-03T14:40:37;101184.44;;;16.39;100.00
13695;BME280;6919;52.344;14.518;2022-10-03T14:43:32;101187.13;;;16.09;100.00
13695;BME280;6919;52.344;14.518;2022-10-03T14:46:05;101184.38;;;15.78;100.00
13695;BME280;6919;52.344;14.518;2022-10-03T14:48:37;101187.31;;;15.53;100.00
13695;BME280;6919;52.344;14.518;2022-10-03T14:51:14;101193.94;;;15.42;100.00
13695;BME280;6919;52.344;14.518;2022-10-03T14:53:51;101209.47;;;15.16;100.00
13695;BME280;6919;52.344;14.518;2022-10-03T14:56:22;101206.91;;;15.07;100.00
13695;BME280;6919;52.344;14.518;2022-10-03T14:58:56;101211.97;;;14.94;100.00
13695;BME280;6919;52.344;14.518;2022-10-03T15:01:26;101209.25;;;14.69;100.00
13695;BME280;6919;52.344;14.518;2022-10-03T15:04:03;101214.25;;;14.56;100.00
13695;BME280;6919;52.344;14.518;2022-10-03T15:06:54;101205.34;;;14.64;100.00
13695;BME280;6919;52.344;14.518;2022-10-03T15:09:33;101212.09;;;14.76;100.00
13695;BME280;6919;52.344;14.518;2022-10-03T15:12:15;101200.16;;;14.87;100.00
13695;BME280;6919;52.344;14.518;2022-10-03T15:14:56;101205.06;;;14.91;100.00
13695;BME280;6919;52.344;14.518;2022-10-03T15:17:32;101199.47;;;15.09;100.00
13695;BME280;6919;52.344;14.518;2022-10-03T15:20:04;101193.56;;;15.21;100.00
13695;BME280;6919;52.344;14.518;2022-10-03T15:22:36;101196.28;;;15.05;100.00
13695;BME280;6919;52.344;14.518;2022-10-03T15:25:14;101190.69;;;14.83;100.00
13695;BME280;6919;52.344;14.518;2022-10-03T15:27:49;101192.22;;;14.93;100.00
13695;BME280;6919;52.344;14.518;2022-10-03T15:30:22;101185.97;;;14.85;100.00
13695;BME280;6919;52.344;14.518;2022-10-03T15:33:09;101179.22;;;14.89;100.00
13695;BME280;6919;52.344;14.518;2022-10-03T15:35:41;101170.78;;;14.92;100.00
13695;BME280;6919;52.344;14.518;2022-10-03T15:38:14;101171.81;;;14.91;100.00
13695;BME280;6919;52.344;14.518;2022-10-03T15:40:51;101170.44;;;14.95;100.00
13695;BME280;6919;52.344;14.518;2022-10-03T15:43:31;101173.66;;;14.90;100.00
13695;BME280;6919;52.344;14.518;2022-10-03T15:46:12;101183.47;;;14.91;100.00
13695;BME280;6919;52.344;14.518;2022-10-03T15:48:42;101175.00;;;14.86;100.00
13695;BME280;6919;52.344;14.518;2022-10-03T15:51:17;101173.81;;;14.89;100.00
13695;BME280;6919;52.344;14.518;2022-10-03T15:53:49;101172.66;;;14.91;100.00
13695;BME280;6919;52.344;14.518;2022-10-03T15:56:28;101180.56;;;14.93;100.00
13695;BME280;6919;52.344;14.518;2022-10-03T15:59:04;101170.25;;;14.80;100.00
13695;BME280;6919;52.344;14.518;2022-10-03T16:01:38;101173.66;;;14.90;100.00
13695;BME280;6919;52.344;14.518;2022-10-03T16:04:18;101175.47;;;14.57;100.00
13695;BME280;6919;52.344;14.518;2022-10-03T16:06:58;101171.28;;;14.63;100.00
13695;BME280;6919;52.344;14.518;2022-10-03T16:09:41;101179.88;;;14.66;100.00
13695;BME280;6919;52.344;14.518;2022-10-03T16:12:47;101176.69;;;14.71;100.00
13695;BME280;6919;52.344;14.518;2022-10-03T16:15:31;101175.81;;;14.70;100.00
13695;BME280;6919;52.344;14.518;2022-10-03T16:18:49;101181.06;;;14.72;100.00
13695;BME280;6919;52.344;14.518;2022-10-03T16:21:43;101184.59;;;14.64;100.00
13695;BME280;6919;52.344;14.518;2022-10-03T16:24:28;101192.88;;;14.63;100.00
13695;BME280;6919;52.344;14.518;2022-10-03T16:27:09;101181.72;;;14.58;100.00
13695;BME280;6919;52.344;14.518;2022-10-03T16:29:51;101174.78;;;14.47;100.00
13695;BME280;6919;52.344;14.518;2022-10-03T16:32:23;101177.16;;;14.58;100.00
13695;BME280;6919;52.344;14.518;2022-10-03T16:34:59;101182.72;;;14.57;100.00
13695;BME280;6919;52.344;14.518;2022-10-03T16:37:31;101177.00;;;14.60;100.00
13695;BME280;6919;52.344;14.518;2022-10-03T16:40:06;101181.63;;;14.34;100.00
13695;BME280;6919;52.344;14.518;2022-10-03T16:42:41;101173.97;;;14.21;100.00
13695;BME280;6919;52.344;14.518;2022-10-03T16:45:23;101180.66;;;14.35;100.00
13695;BME280;6919;52.344;14.518;2022-10-03T16:47:55;101182.97;;;14.22;100.00
13695;BME280;6919;52.344;14.518;2022-10-03T16:50:50;101181.63;;;14.34;100.00
13695;BME280;6919;52.344;14.518;2022-10-03T16:53:20;101179.78;;;14.26;100.00
13695;BME280;6919;52.344;14.518;2022-10-03T16:55:53;101188.06;;;14.33;100.00
13695;BME280;6919;52.344;14.518;2022-10-03T16:58:29;101181.63;;;14.34;100.00
13695;BME280;6919;52.344;14.518;2022-10-03T17:01:02;101178.44;;;14.30;100.00
13695;BME280;6919;52.344;14.518;2022-10-03T17:03:57;101186.69;;;14.29;100.00
13695;BME280;6919;52.344;14.518;2022-10-03T17:06:33;101166.31;;;14.34;100.00
13695;BME280;6919;52.344;14.518;2022-10-03T17:09:06;101176.28;;;14.42;100.00